首页
METAR-TAF:

METAR-TAF

机场 :

奥斯滕德, 比利时

纬度: 51-12N, 经度: 002-52E, 海拔: 4米

当前天气观测

该预报发布于35分钟前的12:50 UTC
风速9节,风向南转西南
温度 18°C
湿度 88%
气压 1003 hPa
能见度10公里或以上
少量云层高于1000英尺
散云层高于2000英尺

METAR: EBOS 231250Z 20009KT 9999 FEW010 SCT020 18/16 Q1003 NOSIG

时间: 15:25 (13:25 UTC)

预报

该预报发布于2小时和5分钟前的11:20 UTC
预报有效从23日的 12点(UTC)到 24日的 18点(UTC)
风速12节,风向西南
能见度10公里或以上
散云层高于2000英尺
短暂存在
从 23日的 14点(UTC)到 23日的 23点(UTC)
风速20节,风向西南,有时为30节阵风
能見度: 4000
多云层高于1200英尺, 积雨云.
阵雨
几率 40% :
短暂存在
从 24日的 09点(UTC)到 24日的 18点(UTC)
风速15节,风向,有时为25节阵风
能見度: 4000
阵雨

TAF: EBOS 231120Z 2312/2418 22012KT 9999 SCT020 TEMPO 2314/2323 22020G30KT 4000 SHRA BKN012CB PROB40 TEMPO 2409/2418 19015G25KT 4000 SHRA

超过4000个机场的气象观测和天气预报(METAR&TAF报告)。

可查询的气象台以黄色和红色小点在地图上表示。

将鼠标移到小点上方,可查看气象台名称。

然后点击查看天气观测和预报。

如需切换地图:点击带黑十字的绿色按钮放大地图;点击带横线的绿色按钮缩小地图;或者点击绿色箭头查看邻近地区的地图。


METAR-TAF: